Terminal Aerodrome Forecast
Issued by NWS Glasgow, MT

Home | Current Version | Previous Version | Text Only | Print | Product List | Glossary On
Versions: 1 2 3 4 5 6 7 8 9 10 11 12 13
000
FTUS45 KGGW 021700
TAFGGW
TAF
KGGW 021720Z 0218/0318 27010KT P6SM BKN140
     FM030300 VRB04KT P6SM SCT090
     FM031200 10007KT P6SM BKN120=

USA.gov is the U.S. government's official web portal to all federal, state and local government web resources and services.